Time;durP1;ratioP1;P1;durP2;ratioP2;P2;SDS_P1;SDS_P2;PMS_P1;PMS_P2;Temp;Humidity;BMP_temperature;BMP_pressure;BME280_temperature;BME280_humidity;BME280_pressure;Samples;Min_cycle;Max_cycle;Signal;HPM_P1;HPM_P2
2022/08/11 00:00:36;;;;;;;3.15;3.10;;;;;;;;;;4953867;29;20415;-94
2022/08/11 00:03:06;;;;;;;3.90;3.80;;;;;;;;;;4955797;29;20424;-94
2022/08/11 00:05:34;;;;;;;4.10;3.90;;;;;;;;;;4936235;29;20452;-94
2022/08/11 00:08:00;;;;;;;3.80;3.60;;;;;;;;;;4939522;29;20486;-94
2022/08/11 00:10:28;;;;;;;3.90;3.70;;;;;;;;;;4940032;29;20404;-94
2022/08/11 00:12:55;;;;;;;3.60;3.50;;;;;;;;;;4939397;29;20483;-94
2022/08/11 00:15:23;;;;;;;3.60;3.50;;;;;;;;;;4932322;29;20432;-95
2022/08/11 00:17:50;;;;;;;3.53;3.23;;;;;;;;;;4934996;29;20218;-95
2022/08/11 00:20:16;;;;;;;3.70;3.70;;;;;;;;;;4939604;29;20442;-94
2022/08/11 00:22:46;;;;;;;3.33;3.33;;;;;;;;;;4942961;29;20442;-95
2022/08/11 00:25:14;;;;;;;3.27;3.10;;;;;;;;;;4941769;29;20486;-95
2022/08/11 00:27:41;;;;;;;3.27;3.27;;;;;;;;;;4943660;29;20449;-95
2022/08/11 00:30:11;;;;;;;4.20;3.80;;;;;;;;;;4941480;29;20433;-94
2022/08/11 00:32:38;;;;;;;3.27;3.27;;;;;;;;;;4942965;29;20443;-95
2022/08/11 00:35:06;;;;;;;3.90;3.60;;;;;;;;;;4943184;29;20431;-95
2022/08/11 00:37:33;;;;;;;9.10;3.63;;;;;;;;;;4943464;29;20411;-96
2022/08/11 00:40:01;;;;;;;3.80;3.60;;;;;;;;;;4943124;29;20475;-94
2022/08/11 00:42:47;;;;;;;4.13;3.93;;;;;;;;;;4943392;29;20442;-95
2022/08/11 00:45:28;;;;;;;3.63;3.40;;;;;;;;;;4942675;29;20495;-93
2022/08/11 00:47:58;;;;;;;4.17;4.07;;;;;;;;;;4941994;29;20466;-94
2022/08/11 00:50:26;;;;;;;4.37;4.07;;;;;;;;;;4941944;29;20438;-94
2022/08/11 00:53:12;;;;;;;4.00;3.90;;;;;;;;;;4941618;29;20431;-94
2022/08/11 00:55:41;;;;;;;4.00;3.90;;;;;;;;;;4939599;29;20969;-96
2022/08/11 00:58:26;;;;;;;4.03;3.92;;;;;;;;;;4932867;29;20416;-95
2022/08/11 01:01:11;;;;;;;4.60;4.30;;;;;;;;;;4932883;29;20396;-95
2022/08/11 01:03:37;;;;;;;4.07;3.97;;;;;;;;;;4939656;29;20424;-95
2022/08/11 01:06:06;;;;;;;4.10;3.90;;;;;;;;;;4935380;29;20427;-95
2022/08/11 01:08:44;;;;;;;3.95;3.85;;;;;;;;;;4937565;29;20400;-94
2022/08/11 01:11:37;;;;;;;3.80;3.70;;;;;;;;;;4936666;29;20412;-96
2022/08/11 01:14:40;;;;;;;4.32;4.13;;;;;;;;;;4936193;29;20434;-96
2022/08/11 01:17:29;;;;;;;4.00;3.80;;;;;;;;;;4916799;29;20429;-94
2022/08/11 01:19:59;;;;;;;4.00;3.90;;;;;;;;;;4908070;29;20419;-94
2022/08/11 01:22:25;;;;;;;3.60;3.47;;;;;;;;;;4939108;29;20171;-96
2022/08/11 01:25:10;;;;;;;3.70;3.53;;;;;;;;;;4939040;29;20494;-95
2022/08/11 01:28:06;;;;;;;3.70;3.50;;;;;;;;;;4952142;29;20435;-96
2022/08/11 01:30:57;;;;;;;4.43;3.93;;;;;;;;;;4916360;29;20428;-96
2022/08/11 01:33:23;;;;;;;4.37;4.17;;;;;;;;;;4941636;29;20431;-96
2022/08/11 01:36:08;;;;;;;3.97;3.80;;;;;;;;;;4939810;29;20434;-95
2022/08/11 01:38:41;;;;;;;4.20;4.10;;;;;;;;;;4942655;28;20523;-95
2022/08/11 01:41:19;;;;;;;3.67;3.67;;;;;;;;;;4944388;29;20522;-94
2022/08/11 01:46:56;;;;;;;6.13;4.67;;;;;;;;;;4933034;29;20476;-94
2022/08/11 01:49:31;;;;;;;4.30;4.20;;;;;;;;;;4936353;29;20455;-93
2022/08/11 01:52:19;;;;;;;3.97;3.83;;;;;;;;;;4916632;29;20459;-94
2022/08/11 01:55:09;;;;;;;4.90;4.30;;;;;;;;;;4918168;29;20431;-95
2022/08/11 01:57:43;;;;;;;4.60;4.40;;;;;;;;;;4933488;29;20447;-94
2022/08/11 02:00:13;;;;;;;4.60;4.50;;;;;;;;;;4939065;29;20403;-96
2022/08/11 02:02:46;;;;;;;4.82;4.43;;;;;;;;;;4933838;29;20425;-95
2022/08/11 02:05:31;;;;;;;4.13;4.03;;;;;;;;;;4915513;29;20216;-95
2022/08/11 02:08:14;;;;;;;4.67;4.47;;;;;;;;;;4935982;29;20438;-95
2022/08/11 02:13:31;;;;;;;5.40;4.90;;;;;;;;;;4944742;29;20418;-94
2022/08/11 02:16:16;;;;;;;4.33;4.13;;;;;;;;;;4931614;29;20478;-94
2022/08/11 02:24:28;;;;;;;4.57;4.37;;;;;;;;;;4940790;29;20533;-94
2022/08/11 04:08:10;;;;;;;5.80;5.40;;;;;;;;;;4934691;29;20391;-87
2022/08/11 04:10:42;;;;;;;5.50;5.20;;;;;;;;;;4931514;29;20718;-88
2022/08/11 04:13:08;;;;;;;5.53;5.22;;;;;;;;;;4917942;29;20404;-89
2022/08/11 04:18:39;;;;;;;6.20;5.20;;;;;;;;;;4934509;29;20431;-88
2022/08/11 04:21:15;;;;;;;5.68;5.25;;;;;;;;;;4917875;29;20413;-88
2022/08/11 04:23:41;;;;;;;5.80;5.40;;;;;;;;;;4921854;29;20406;-88
2022/08/11 04:26:24;;;;;;;5.20;4.90;;;;;;;;;;4935250;29;20494;-88
2022/08/11 04:29:09;;;;;;;5.70;5.30;;;;;;;;;;4910485;29;20419;-88
2022/08/11 04:31:37;;;;;;;5.40;5.20;;;;;;;;;;4915812;29;20458;-88
2022/08/11 04:34:05;;;;;;;6.60;6.13;;;;;;;;;;4917230;29;20560;-88
2022/08/11 04:39:53;;;;;;;6.10;5.53;;;;;;;;;;4930709;29;20423;-88
2022/08/11 04:45:51;;;;;;;5.83;5.43;;;;;;;;;;4905544;29;20801;-88
2022/08/11 05:02:22;;;;;;;6.55;6.15;;;;;;;;;;4929474;29;20410;-86
2022/08/11 05:08:11;;;;;;;5.80;5.40;;;;;;;;;;4931745;29;20379;-89
2022/08/11 05:10:40;;;;;;;6.17;5.90;;;;;;;;;;4914668;29;20415;-89
2022/08/11 05:36:17;;;;;;;5.80;5.50;;;;;;;;;;4924941;29;20934;-90
2022/08/11 05:58:11;;;;;;;10.18;6.32;;;;;;;;;;4917590;29;20556;-90
2022/08/11 06:00:41;;;;;;;6.53;5.90;;;;;;;;;;4900260;29;20447;-90
2022/08/11 06:03:24;;;;;;;5.77;5.00;;;;;;;;;;4899021;29;20462;-90
2022/08/11 06:05:51;;;;;;;5.60;5.30;;;;;;;;;;4900926;29;20416;-89
2022/08/11 06:08:18;;;;;;;5.20;4.90;;;;;;;;;;4900930;29;20397;-88
2022/08/11 06:10:44;;;;;;;5.63;5.20;;;;;;;;;;4901086;29;20400;-88
2022/08/11 06:13:14;;;;;;;5.20;5.00;;;;;;;;;;4899771;29;20408;-88
2022/08/11 06:15:47;;;;;;;4.53;4.27;;;;;;;;;;4899296;29;20511;-89
2022/08/11 06:18:14;;;;;;;13.90;5.73;;;;;;;;;;4903428;29;20486;-87
2022/08/11 06:20:54;;;;;;;5.37;5.07;;;;;;;;;;4901797;29;20413;-87
2022/08/11 06:23:22;;;;;;;5.57;5.37;;;;;;;;;;4901033;29;20431;-89
2022/08/11 06:25:49;;;;;;;8.00;6.47;;;;;;;;;;4917985;29;20403;-90
2022/08/11 06:28:21;;;;;;;5.43;5.13;;;;;;;;;;4918240;29;20541;-90
2022/08/11 06:30:51;;;;;;;6.10;5.50;;;;;;;;;;4902194;29;20420;-88
2022/08/11 06:33:42;;;;;;;5.20;5.10;;;;;;;;;;4920234;29;20911;-90
2022/08/11 06:36:11;;;;;;;7.67;5.60;;;;;;;;;;4917839;29;20558;-89
2022/08/11 06:38:52;;;;;;;5.13;4.73;;;;;;;;;;4901307;29;20551;-87
2022/08/11 06:41:30;;;;;;;4.73;4.63;;;;;;;;;;4900557;29;20446;-88
2022/08/11 06:44:12;;;;;;;5.27;4.97;;;;;;;;;;4901309;29;20518;-89
2022/08/11 06:46:42;;;;;;;5.70;5.47;;;;;;;;;;4902363;29;20455;-89
2022/08/11 06:51:10;;;;;;;5.03;4.70;;;;;;;;;;4903690;29;20416;-91
2022/08/11 06:51:55;;;;;;;5.20;4.77;;;;;;;;;;4921174;29;20416;-89
2022/08/11 06:54:22;;;;;;;4.83;4.63;;;;;;;;;;4921504;28;20520;-90
2022/08/11 07:02:27;;;;;;;5.00;4.63;;;;;;;;;;4964394;28;20461;-91
2022/08/11 07:05:00;;;;;;;4.80;4.60;;;;;;;;;;4943293;28;20438;-93
2022/08/11 07:15:58;;;;;;;4.73;4.63;;;;;;;;;;4934590;29;20499;-90
2022/08/11 07:29:50;;;;;;;4.87;4.40;;;;;;;;;;4935234;29;20429;-90
2022/08/11 07:32:23;;;;;;;5.07;4.63;;;;;;;;;;4919288;29;21005;-90
2022/08/11 07:34:53;;;;;;;5.10;4.80;;;;;;;;;;4922422;29;20901;-89
2022/08/11 07:37:19;;;;;;;4.83;4.40;;;;;;;;;;4918605;29;20411;-89
2022/08/11 07:39:49;;;;;;;4.90;4.60;;;;;;;;;;4918397;29;20459;-90
2022/08/11 07:42:21;;;;;;;4.23;4.13;;;;;;;;;;4920185;29;20417;-91
2022/08/11 07:53:04;;;;;;;8.27;4.60;;;;;;;;;;4933382;29;20458;-89
2022/08/11 07:55:34;;;;;;;4.27;4.17;;;;;;;;;;4916943;29;20466;-88
2022/08/11 08:18:07;;;;;;;4.63;4.23;;;;;;;;;;4918174;29;20423;-90
2022/08/11 08:20:38;;;;;;;3.73;3.73;;;;;;;;;;4918379;29;20558;-88
2022/08/11 08:23:05;;;;;;;4.00;3.80;;;;;;;;;;4585718;29;10000319;-89
2022/08/11 08:25:32;;;;;;;6.33;4.33;;;;;;;;;;4898356;29;20165;-89
2022/08/11 08:27:59;;;;;;;4.10;3.80;;;;;;;;;;4899855;29;20488;-89
2022/08/11 08:33:25;;;;;;;6.03;3.97;;;;;;;;;;4918684;29;20502;-89
2022/08/11 08:36:10;;;;;;;4.07;3.97;;;;;;;;;;4900139;29;20502;-89
2022/08/11 08:38:47;;;;;;;4.87;4.57;;;;;;;;;;4918066;29;20409;-90
2022/08/11 08:41:14;;;;;;;4.53;4.33;;;;;;;;;;4900701;29;20416;-89
2022/08/11 08:43:42;;;;;;;4.03;3.80;;;;;;;;;;4902032;29;20432;-90
2022/08/11 08:46:09;;;;;;;3.73;3.43;;;;;;;;;;4904700;29;20414;-89
2022/08/11 08:48:36;;;;;;;4.50;4.20;;;;;;;;;;4899588;29;20412;-89
2022/08/11 08:53:49;;;;;;;3.40;3.27;;;;;;;;;;4934746;29;20490;-91
2022/08/11 08:56:16;;;;;;;3.83;3.63;;;;;;;;;;4912032;29;20563;-90
2022/08/11 08:58:45;;;;;;;3.73;3.40;;;;;;;;;;4915519;29;20495;-90
2022/08/11 09:01:13;;;;;;;4.10;3.90;;;;;;;;;;4915834;29;20468;-90
2022/08/11 09:03:39;;;;;;;4.00;3.70;;;;;;;;;;4913623;29;20436;-90
2022/08/11 09:06:06;;;;;;;3.87;3.60;;;;;;;;;;4914994;29;20435;-88
2022/08/11 09:08:32;;;;;;;4.90;3.87;;;;;;;;;;4921316;29;21221;-89
2022/08/11 09:13:45;;;;;;;4.20;3.83;;;;;;;;;;4933320;29;20446;-87
2022/08/11 09:16:12;;;;;;;4.20;4.10;;;;;;;;;;4931767;29;20463;-87
2022/08/11 09:18:43;;;;;;;2.97;2.93;;;;;;;;;;4915345;29;20411;-89
2022/08/11 09:21:11;;;;;;;3.70;3.57;;;;;;;;;;4919120;29;20415;-90
2022/08/11 09:29:10;;;;;;;3.27;3.27;;;;;;;;;;4938779;29;20439;-89
2022/08/11 09:31:36;;;;;;;4.03;3.90;;;;;;;;;;4934858;29;20399;-89
2022/08/11 09:34:02;;;;;;;3.73;3.27;;;;;;;;;;4936614;29;20687;-90
2022/08/11 09:42:00;;;;;;;3.80;3.70;;;;;;;;;;4935303;29;20438;-88
2022/08/11 09:47:14;;;;;;;3.90;3.60;;;;;;;;;;4933194;29;20403;-87
2022/08/11 09:49:41;;;;;;;3.77;3.63;;;;;;;;;;4927675;29;20423;-89
2022/08/11 09:52:08;;;;;;;2.87;2.87;;;;;;;;;;4896345;29;20422;-88
2022/08/11 09:54:35;;;;;;;3.83;3.73;;;;;;;;;;4900837;29;20491;-91
2022/08/11 09:59:52;;;;;;;3.83;3.73;;;;;;;;;;4915390;29;20411;-90
2022/08/11 10:02:23;;;;;;;5.20;4.90;;;;;;;;;;4915737;29;20463;-88
2022/08/11 10:04:50;;;;;;;2.83;2.83;;;;;;;;;;4898696;29;20429;-88
2022/08/11 10:07:27;;;;;;;3.33;3.10;;;;;;;;;;4900310;29;20416;-90
2022/08/11 10:09:58;;;;;;;3.03;2.83;;;;;;;;;;4899011;29;20780;-90
2022/08/11 10:12:28;;;;;;;3.50;3.40;;;;;;;;;;4899094;29;20408;-89
2022/08/11 10:20:34;;;;;;;3.73;3.53;;;;;;;;;;4915572;29;20403;-88
2022/08/11 10:28:32;;;;;;;3.60;3.37;;;;;;;;;;4953762;29;20406;-90
2022/08/11 10:33:59;;;;;;;7.27;6.93;;;;;;;;;;4953259;29;20908;-88
2022/08/11 10:36:30;;;;;;;5.90;3.50;;;;;;;;;;4937378;29;21153;-90
2022/08/11 10:38:57;;;;;;;3.13;3.13;;;;;;;;;;4937175;29;20449;-90
2022/08/11 10:44:09;;;;;;;3.90;3.77;;;;;;;;;;4945654;29;20854;-90
2022/08/11 10:49:20;;;;;;;3.60;3.40;;;;;;;;;;4929448;29;20475;-87
2022/08/11 11:00:05;;;;;;;3.77;3.43;;;;;;;;;;4921939;29;20461;-87
2022/08/11 11:02:31;;;;;;;3.40;3.30;;;;;;;;;;4913972;29;20470;-86
2022/08/11 11:05:08;;;;;;;3.67;3.47;;;;;;;;;;4919861;29;20447;-88
2022/08/11 11:07:37;;;;;;;3.17;2.97;;;;;;;;;;4908243;29;20440;-84
2022/08/11 11:10:04;;;;;;;3.63;3.30;;;;;;;;;;4925732;29;20697;-88
2022/08/11 11:18:08;;;;;;;3.97;3.77;;;;;;;;;;4911562;29;20411;-84
2022/08/11 11:20:34;;;;;;;3.73;3.53;;;;;;;;;;4933439;29;20492;-85
2022/08/11 11:23:05;;;;;;;3.40;3.30;;;;;;;;;;4916885;29;20463;-85
2022/08/11 11:26:05;;;;;;;4.00;3.80;;;;;;;;;;4896938;29;20420;-86
2022/08/11 11:28:46;;;;;;;3.63;3.30;;;;;;;;;;4914107;29;20531;-85
2022/08/11 11:31:21;;;;;;;3.70;3.60;;;;;;;;;;4915678;29;20427;-86
2022/08/11 11:33:54;;;;;;;3.80;3.80;;;;;;;;;;4915476;29;20992;-87
2022/08/11 11:36:38;;;;;;;3.67;3.47;;;;;;;;;;4930269;29;20463;-86
2022/08/11 11:39:06;;;;;;;3.20;3.20;;;;;;;;;;4929135;29;21111;-87
2022/08/11 11:41:32;;;;;;;3.50;3.30;;;;;;;;;;4914579;29;20449;-87
2022/08/11 11:43:58;;;;;;;4.07;3.87;;;;;;;;;;4913119;29;20442;-85
2022/08/11 11:46:26;;;;;;;4.97;4.60;;;;;;;;;;4915584;29;20424;-86
2022/08/11 11:48:57;;;;;;;4.53;4.37;;;;;;;;;;4914195;29;20438;-86
2022/08/11 11:51:26;;;;;;;4.23;4.03;;;;;;;;;;4917345;29;20407;-86
2022/08/11 11:53:53;;;;;;;3.60;3.40;;;;;;;;;;4919863;29;21182;-87
2022/08/11 11:56:21;;;;;;;4.30;3.90;;;;;;;;;;4935191;29;20522;-88
2022/08/11 12:01:37;;;;;;;4.37;4.00;;;;;;;;;;4944685;29;20458;-90
2022/08/11 12:04:05;;;;;;;3.90;3.70;;;;;;;;;;4938643;29;20450;-90
2022/08/11 12:06:32;;;;;;;3.90;3.70;;;;;;;;;;4586358;29;10000549;-90
2022/08/11 12:09:03;;;;;;;3.13;3.13;;;;;;;;;;4929887;29;20230;-93
2022/08/11 12:14:17;;;;;;;3.77;3.67;;;;;;;;;;4969005;28;20464;-89
2022/08/11 12:16:44;;;;;;;8.87;4.40;;;;;;;;;;4941986;29;20446;-89
2022/08/11 12:19:14;;;;;;;4.23;4.13;;;;;;;;;;4936462;29;20438;-90
2022/08/11 12:27:22;;;;;;;3.70;3.60;;;;;;;;;;4955202;29;21274;-90
2022/08/11 12:29:53;;;;;;;3.43;3.33;;;;;;;;;;4935528;29;20512;-89
2022/08/11 12:32:20;;;;;;;4.30;3.83;;;;;;;;;;4950063;29;20453;-90
2022/08/11 12:34:46;;;;;;;4.67;4.40;;;;;;;;;;4937289;29;20430;-92
2022/08/11 12:37:13;;;;;;;3.80;3.53;;;;;;;;;;4956794;29;20916;-89
2022/08/11 12:45:28;;;;;;;3.70;3.50;;;;;;;;;;4949651;29;20580;-88
2022/08/11 12:53:59;;;;;;;3.90;3.50;;;;;;;;;;4952084;29;20445;-92
2022/08/11 13:04:50;;;;;;;3.93;3.83;;;;;;;;;;4941361;29;20524;-88
2022/08/11 13:07:16;;;;;;;4.00;3.80;;;;;;;;;;4935672;29;20492;-89
2022/08/11 13:09:43;;;;;;;6.30;3.53;;;;;;;;;;4936184;29;20457;-90
2022/08/11 13:14:55;;;;;;;3.83;3.60;;;;;;;;;;4953279;29;20510;-92
2022/08/11 13:17:21;;;;;;;4.03;3.93;;;;;;;;;;4937669;29;20441;-90
2022/08/11 13:19:48;;;;;;;4.37;4.03;;;;;;;;;;4947373;29;20467;-90
2022/08/11 13:22:18;;;;;;;4.30;4.00;;;;;;;;;;4952638;29;20430;-88
2022/08/11 13:24:48;;;;;;;3.60;3.43;;;;;;;;;;4938837;29;20584;-89
2022/08/11 13:27:16;;;;;;;4.63;4.27;;;;;;;;;;4935298;29;20442;-92
2022/08/11 13:29:45;;;;;;;3.53;3.40;;;;;;;;;;4933403;29;20933;-92
2022/08/11 13:32:12;;;;;;;4.83;4.50;;;;;;;;;;4931747;29;20548;-87
2022/08/11 13:34:41;;;;;;;5.73;4.07;;;;;;;;;;4938001;29;20446;-91
2022/08/11 13:37:07;;;;;;;4.13;3.87;;;;;;;;;;4927252;29;20450;-85
2022/08/11 13:39:34;;;;;;;4.47;4.10;;;;;;;;;;4926514;29;20443;-93
2022/08/11 13:42:01;;;;;;;7.83;7.43;;;;;;;;;;4930764;29;21312;-89
2022/08/11 13:44:28;;;;;;;4.73;4.00;;;;;;;;;;4961229;28;20441;-92
2022/08/11 13:46:57;;;;;;;4.00;3.70;;;;;;;;;;4940946;29;20782;-92
2022/08/11 13:49:23;;;;;;;4.40;4.30;;;;;;;;;;4936435;29;20430;-89
2022/08/11 13:51:53;;;;;;;4.57;4.17;;;;;;;;;;4939165;29;20468;-92
2022/08/11 13:54:27;;;;;;;3.93;3.80;;;;;;;;;;4953125;29;20418;-91
2022/08/11 13:56:55;;;;;;;4.33;4.07;;;;;;;;;;4955625;29;20893;-91
2022/08/11 13:59:22;;;;;;;4.40;4.30;;;;;;;;;;4950527;29;20438;-90
2022/08/11 14:01:52;;;;;;;4.30;4.00;;;;;;;;;;4938565;29;20418;-90
2022/08/11 14:04:32;;;;;;;4.53;4.23;;;;;;;;;;4939645;29;20456;-92
2022/08/11 14:07:06;;;;;;;4.83;4.63;;;;;;;;;;4942629;29;20498;-91
2022/08/11 14:09:37;;;;;;;4.63;4.43;;;;;;;;;;4934360;29;20434;-90
2022/08/11 14:15:10;;;;;;;5.03;4.73;;;;;;;;;;4927973;29;20468;-89
2022/08/11 14:17:38;;;;;;;5.13;4.17;;;;;;;;;;4936148;29;20444;-90
2022/08/11 14:20:07;;;;;;;4.17;4.03;;;;;;;;;;4935796;29;20451;-89
2022/08/11 14:22:33;;;;;;;5.07;4.77;;;;;;;;;;4931851;29;20448;-87
2022/08/11 14:24:59;;;;;;;4.20;3.80;;;;;;;;;;4934081;29;20479;-87
2022/08/11 14:27:29;;;;;;;5.80;4.33;;;;;;;;;;4930686;29;20444;-87
2022/08/11 14:29:56;;;;;;;4.30;4.23;;;;;;;;;;4934427;29;20467;-86
2022/08/11 14:32:23;;;;;;;4.90;4.80;;;;;;;;;;4938834;29;20502;-88
2022/08/11 14:34:49;;;;;;;4.27;4.17;;;;;;;;;;4935827;29;21024;-88
2022/08/11 14:37:19;;;;;;;4.73;4.43;;;;;;;;;;4933272;29;20866;-86
2022/08/11 14:39:47;;;;;;;3.97;3.90;;;;;;;;;;4933467;29;20474;-87
2022/08/11 14:47:54;;;;;;;6.23;5.70;;;;;;;;;;4926105;29;20789;-86
2022/08/11 14:50:22;;;;;;;4.23;4.13;;;;;;;;;;4927886;29;20493;-87
2022/08/11 14:52:55;;;;;;;4.57;4.37;;;;;;;;;;4928137;29;20533;-88
2022/08/11 14:58:11;;;;;;;7.87;3.73;;;;;;;;;;4927841;29;20774;-87
2022/08/11 15:00:38;;;;;;;4.37;4.27;;;;;;;;;;4912912;29;20462;-88
2022/08/11 15:03:10;;;;;;;4.70;4.50;;;;;;;;;;4932478;29;20914;-87
2022/08/11 15:05:40;;;;;;;4.63;4.53;;;;;;;;;;4924346;29;20479;-86
2022/08/11 15:08:07;;;;;;;4.93;4.73;;;;;;;;;;4929566;29;20489;-87
2022/08/11 15:10:34;;;;;;;4.37;4.27;;;;;;;;;;4921128;29;20457;-87
2022/08/11 15:13:00;;;;;;;5.00;4.80;;;;;;;;;;4926934;29;20478;-86
2022/08/11 15:18:15;;;;;;;5.10;4.90;;;;;;;;;;4927707;29;20491;-87
2022/08/11 15:26:15;;;;;;;4.90;4.50;;;;;;;;;;4931032;29;21174;-87
2022/08/11 15:37:29;;;;;;;8.87;4.70;;;;;;;;;;4932622;29;20438;-86
2022/08/11 15:45:51;;;;;;;4.80;4.50;;;;;;;;;;4935490;29;20910;-87
2022/08/11 15:48:31;;;;;;;4.33;4.23;;;;;;;;;;4934735;29;20522;-89
2022/08/11 15:51:08;;;;;;;4.27;4.00;;;;;;;;;;4930913;29;20779;-89
2022/08/11 15:53:48;;;;;;;5.93;5.30;;;;;;;;;;4930429;29;20434;-87
2022/08/11 15:56:14;;;;;;;8.23;7.60;;;;;;;;;;4930451;29;20435;-87
2022/08/11 16:04:25;;;;;;;4.90;4.80;;;;;;;;;;4935860;29;20477;-88
2022/08/11 16:07:11;;;;;;;5.73;4.83;;;;;;;;;;4932848;29;20490;-90
2022/08/11 16:09:43;;;;;;;5.03;4.73;;;;;;;;;;4926261;29;20988;-88
2022/08/11 16:12:11;;;;;;;5.30;5.20;;;;;;;;;;4940498;29;20465;-90
2022/08/11 16:17:27;;;;;;;6.90;5.23;;;;;;;;;;4955587;29;20494;-89
2022/08/11 16:19:54;;;;;;;5.60;5.40;;;;;;;;;;4934840;29;20534;-91
2022/08/11 16:22:35;;;;;;;6.23;5.63;;;;;;;;;;4936236;29;20427;-89
2022/08/11 16:25:05;;;;;;;5.07;4.77;;;;;;;;;;4932103;29;20503;-89
2022/08/11 16:27:34;;;;;;;5.10;5.00;;;;;;;;;;4936684;29;20406;-85
2022/08/11 16:30:01;;;;;;;5.27;5.03;;;;;;;;;;4934504;29;20442;-89
2022/08/11 16:32:27;;;;;;;5.83;5.33;;;;;;;;;;4954048;29;20425;-89
2022/08/11 16:40:49;;;;;;;4.77;4.37;;;;;;;;;;4952086;29;20450;-90
2022/08/11 16:48:57;;;;;;;4.90;4.80;;;;;;;;;;4907267;29;20480;-88
2022/08/11 16:51:23;;;;;;;4.90;4.70;;;;;;;;;;4913936;29;20449;-89
2022/08/11 16:53:53;;;;;;;6.50;6.20;;;;;;;;;;4944799;29;20459;-92
2022/08/11 16:56:28;;;;;;;6.03;5.53;;;;;;;;;;4944839;29;20443;-90
2022/08/11 17:01:58;;;;;;;5.60;5.20;;;;;;;;;;4943408;29;20410;-93
2022/08/11 17:18:39;;;;;;;4.50;4.20;;;;;;;;;;4946504;29;20603;-90
2022/08/11 17:21:08;;;;;;;5.80;5.50;;;;;;;;;;4939428;29;20511;-92
2022/08/11 17:23:53;;;;;;;5.07;4.90;;;;;;;;;;4946688;29;20454;-93
2022/08/11 17:26:24;;;;;;;5.83;5.37;;;;;;;;;;4947964;29;20496;-90
2022/08/11 17:29:00;;;;;;;5.33;4.90;;;;;;;;;;4601679;29;10000678;-91
2022/08/11 17:37:14;;;;;;;5.33;5.23;;;;;;;;;;4956233;29;20454;-91
2022/08/11 17:39:41;;;;;;;6.17;5.93;;;;;;;;;;4945220;29;20501;-91
2022/08/11 18:03:28;;;;;;;5.70;5.30;;;;;;;;;;4973283;28;20813;-93
2022/08/11 18:04:48;;;;;;;5.97;5.33;;;;;;;;;;4988646;28;21032;-92
